createdAt,value
2022-12-06T00:02:15.874Z,101511.94
2022-12-06T00:04:42.980Z,101500.56
2022-12-06T00:07:11.585Z,101505.91
2022-12-06T00:09:38.889Z,101499.72
2022-12-06T00:12:06.195Z,101503.16
2022-12-06T00:14:33.322Z,101504.00
2022-12-06T00:17:00.529Z,101504.09
2022-12-06T00:19:27.795Z,101499.72
2022-12-06T00:21:54.912Z,101503.31
2022-12-06T00:24:22.830Z,101509.66
2022-12-06T00:26:51.109Z,101509.78
2022-12-06T00:29:22.813Z,101498.34
2022-12-06T00:31:50.593Z,101505.44
2022-12-06T00:34:17.746Z,101500.38
2022-12-06T00:36:45.043Z,101498.66
2022-12-06T00:39:14.151Z,101504.91
2022-12-06T00:41:41.434Z,101502.31
2022-12-06T00:44:09.284Z,101506.56
2022-12-06T00:46:37.038Z,101505.56
2022-12-06T00:49:05.838Z,101508.28
2022-12-06T00:51:35.952Z,101511.81
2022-12-06T00:54:03.576Z,101512.75
2022-12-06T00:56:31.275Z,101509.31
2022-12-06T00:58:58.410Z,101510.00
2022-12-06T01:01:27.892Z,101506.41
2022-12-06T01:03:59.693Z,101501.00
2022-12-06T01:06:28.864Z,101499.19
2022-12-06T01:08:57.071Z,101496.78
2022-12-06T01:11:25.145Z,101506.72
2022-12-06T01:13:52.701Z,101501.47
2022-12-06T01:16:23.482Z,101511.22
2022-12-06T01:18:53.746Z,101502.31
2022-12-06T01:21:21.055Z,101509.31
2022-12-06T01:23:48.005Z,101505.69
2022-12-06T01:26:19.822Z,101508.22
2022-12-06T01:28:46.377Z,101503.66
2022-12-06T01:31:13.280Z,101498.34
2022-12-06T01:33:39.883Z,101501.94
2022-12-06T01:36:06.712Z,101498.22
2022-12-06T01:38:33.366Z,101499.78
2022-12-06T01:41:00.207Z,101493.59
2022-12-06T01:43:38.961Z,101489.22
2022-12-06T01:46:32.813Z,101485.00
2022-12-06T01:49:12.227Z,101486.19
2022-12-06T01:51:41.398Z,101488.16
2022-12-06T01:54:10.447Z,101482.88
2022-12-06T01:56:38.604Z,101478.50
2022-12-06T01:59:06.431Z,101479.38
2022-12-06T02:01:33.345Z,101471.38
2022-12-06T02:04:03.942Z,101475.00
2022-12-06T02:06:31.015Z,101470.66
2022-12-06T02:08:59.468Z,101469.75
2022-12-06T02:11:29.428Z,101470.84
2022-12-06T02:13:59.319Z,101467.41
2022-12-06T02:16:47.510Z,101471.09
2022-12-06T02:19:51.717Z,101468.50
2022-12-06T02:22:56.047Z,101468.50
2022-12-06T02:25:43.455Z,101465.06
2022-12-06T02:28:28.852Z,101460.84
2022-12-06T02:30:57.100Z,101466.22
2022-12-06T02:33:31.053Z,101461.09
2022-12-06T02:36:15.428Z,101449.66
2022-12-06T02:39:08.155Z,101453.34
2022-12-06T02:41:42.259Z,101455.28
2022-12-06T02:44:15.365Z,101453.72
2022-12-06T02:46:43.817Z,101451.13
2022-12-06T02:49:11.881Z,101453.97
2022-12-06T02:51:38.904Z,101451.31
2022-12-06T02:54:09.872Z,101439.69
2022-12-06T02:56:36.699Z,101445.13
2022-12-06T02:59:03.913Z,101438.84
2022-12-06T03:01:32.770Z,101439.63
2022-12-06T03:04:08.309Z,101447.63
2022-12-06T03:07:05.265Z,101444.88
2022-12-06T03:09:53.328Z,101438.53
2022-12-06T03:12:19.837Z,101435.94
2022-12-06T03:14:54.463Z,101431.63
2022-12-06T03:17:23.967Z,101436.97
2022-12-06T03:19:55.897Z,101440.47
2022-12-06T03:22:44.830Z,101432.66
2022-12-06T03:25:11.495Z,101442.47
2022-12-06T03:27:40.175Z,101433.69
2022-12-06T03:30:11.362Z,101433.06
2022-12-06T03:32:39.037Z,101437.59
2022-12-06T03:35:08.187Z,101434.09
2022-12-06T03:37:37.838Z,101443.88
2022-12-06T03:40:07.716Z,101430.63
2022-12-06T03:42:34.699Z,101437.91
2022-12-06T03:45:01.474Z,101431.72
2022-12-06T03:47:36.838Z,101432.59
2022-12-06T03:50:09.819Z,101431.66
2022-12-06T03:52:36.427Z,101430.88
2022-12-06T03:55:03.083Z,101433.53
2022-12-06T03:57:29.631Z,101429.16
2022-12-06T03:59:56.167Z,101424.06
2022-12-06T04:02:22.768Z,101424.31
2022-12-06T04:04:49.850Z,101428.78
2022-12-06T04:07:21.233Z,101422.56
2022-12-06T04:10:03.190Z,101426.00
2022-12-06T04:12:50.123Z,101424.13
2022-12-06T04:15:17.473Z,101427.69
2022-12-06T04:18:02.759Z,101420.69
2022-12-06T04:20:30.067Z,101420.84
2022-12-06T04:23:05.565Z,101419.28
2022-12-06T04:25:33.346Z,101417.66
2022-12-06T04:28:18.442Z,101413.97
2022-12-06T04:31:03.363Z,101410.53
2022-12-06T04:33:48.318Z,101412.47
2022-12-06T04:36:33.787Z,101408.94
2022-12-06T04:39:00.319Z,101409.97
2022-12-06T04:41:45.451Z,101402.84
2022-12-06T04:44:12.064Z,101404.59
2022-12-06T04:46:38.642Z,101394.72
2022-12-06T04:49:05.224Z,101399.72
2022-12-06T04:51:32.273Z,101398.94
2022-12-06T04:53:58.769Z,101392.69
2022-12-06T04:56:25.263Z,101396.97
2022-12-06T04:58:52.179Z,101408.16
2022-12-06T05:01:18.982Z,101409.03
2022-12-06T05:03:45.638Z,101411.59
2022-12-06T05:06:12.257Z,101402.75
2022-12-06T05:08:38.970Z,101409.91
2022-12-06T05:11:05.867Z,101397.50
2022-12-06T05:13:32.756Z,101402.94
2022-12-06T05:16:03.875Z,101406.44
2022-12-06T05:18:30.996Z,101405.84
2022-12-06T05:21:18.381Z,101396.50
2022-12-06T05:23:45.368Z,101396.81
2022-12-06T05:26:14.862Z,101399.66
2022-12-06T05:28:41.950Z,101406.91
2022-12-06T05:31:08.881Z,101406.13
2022-12-06T05:33:36.046Z,101399.94
2022-12-06T05:36:12.892Z,101401.69
2022-12-06T05:38:39.444Z,101407.00
2022-12-06T05:41:06.514Z,101408.66
2022-12-06T05:43:33.296Z,101401.59
2022-12-06T05:46:00.074Z,101406.13
2022-12-06T05:48:27.107Z,101408.88
2022-12-06T05:50:53.883Z,101408.16
2022-12-06T05:53:21.001Z,101408.31
2022-12-06T05:55:47.966Z,101411.13
2022-12-06T05:58:15.076Z,101405.16
2022-12-06T06:00:41.559Z,101405.25
2022-12-06T06:03:08.214Z,101407.03
2022-12-06T06:05:34.891Z,101412.28
2022-12-06T06:08:01.474Z,101406.91
2022-12-06T06:10:28.014Z,101406.91
2022-12-06T06:12:54.563Z,101412.28
2022-12-06T06:15:21.078Z,101408.94
2022-12-06T06:17:47.621Z,101410.66
2022-12-06T06:20:14.194Z,101408.84
2022-12-06T06:22:41.919Z,101410.50
2022-12-06T06:25:09.223Z,101414.88
2022-12-06T06:27:37.754Z,101415.81
2022-12-06T06:30:10.117Z,101409.63
2022-12-06T06:32:37.110Z,101421.13
2022-12-06T06:35:04.713Z,101416.94
2022-12-06T06:37:32.421Z,101416.16
2022-12-06T06:40:00.042Z,101417.00
2022-12-06T06:42:26.941Z,101412.47
2022-12-06T06:44:54.689Z,101402.44
2022-12-06T06:47:24.041Z,101417.31
2022-12-06T06:49:50.582Z,101415.38
2022-12-06T06:52:17.155Z,101424.13
2022-12-06T06:54:43.600Z,101415.19
2022-12-06T06:57:15.846Z,101420.31
2022-12-06T06:59:44.470Z,101416.47
2022-12-06T07:02:16.883Z,101416.16
2022-12-06T07:04:44.860Z,101422.91
2022-12-06T07:07:17.739Z,101419.84
2022-12-06T07:09:47.619Z,101421.09
2022-12-06T07:12:14.552Z,101422.50
2022-12-06T07:14:41.136Z,101417.78
2022-12-06T07:17:07.863Z,101420.97
2022-12-06T07:19:34.349Z,101425.38
2022-12-06T07:22:00.838Z,101426.38
2022-12-06T07:24:27.357Z,101423.97
2022-12-06T07:26:56.747Z,101416.94
2022-12-06T07:29:23.338Z,101416.84
2022-12-06T07:31:49.912Z,101418.41
2022-12-06T07:34:18.116Z,101422.56
2022-12-06T07:36:44.596Z,101415.00
2022-12-06T07:39:14.781Z,101414.38
2022-12-06T07:42:00.231Z,101413.53
2022-12-06T07:44:45.397Z,101416.31
2022-12-06T07:47:11.915Z,101415.66
2022-12-06T07:49:38.574Z,101413.34
2022-12-06T07:52:05.212Z,101407.56
2022-12-06T07:54:31.707Z,101413.25
2022-12-06T07:56:58.548Z,101409.38
2022-12-06T07:59:25.917Z,101416.25
2022-12-06T08:01:53.223Z,101409.28
2022-12-06T08:04:20.183Z,101421.97
2022-12-06T08:06:47.380Z,101419.78
2022-12-06T08:09:14.002Z,101415.66
2022-12-06T08:11:40.597Z,101413.44
2022-12-06T08:14:07.084Z,101427.97
2022-12-06T08:16:33.737Z,101421.13
2022-12-06T08:19:00.739Z,101421.31
2022-12-06T08:21:27.383Z,101413.22
2022-12-06T08:23:55.196Z,101416.81
2022-12-06T08:26:22.361Z,101421.63
2022-12-06T08:28:51.051Z,101416.63
2022-12-06T08:31:23.346Z,101421.19
2022-12-06T08:33:50.503Z,101427.63
2022-12-06T08:36:19.155Z,101425.91
2022-12-06T08:38:46.251Z,101432.81
2022-12-06T08:41:31.760Z,101439.34
2022-12-06T08:44:00.131Z,101427.47
2022-12-06T08:46:27.716Z,101436.22
2022-12-06T08:48:54.583Z,101438.53
2022-12-06T08:51:21.312Z,101429.59
2022-12-06T08:53:48.037Z,101427.09
2022-12-06T08:56:15.231Z,101440.19
2022-12-06T08:58:41.710Z,101433.72
2022-12-06T09:01:17.863Z,101437.84
2022-12-06T09:03:44.451Z,101436.13
2022-12-06T09:06:11.728Z,101436.47
2022-12-06T09:08:38.644Z,101440.94
2022-12-06T09:11:07.736Z,101439.66
2022-12-06T09:13:37.822Z,101445.25
2022-12-06T09:16:13.988Z,101447.28
2022-12-06T09:18:40.524Z,101449.53
2022-12-06T09:21:08.278Z,101450.09
2022-12-06T09:23:35.922Z,101443.78
2022-12-06T09:26:03.334Z,101440.84
2022-12-06T09:28:30.035Z,101443.47
2022-12-06T09:30:57.087Z,101439.69
2022-12-06T09:33:24.472Z,101437.00
2022-12-06T09:35:51.542Z,101431.88
2022-12-06T09:38:19.990Z,101430.44
2022-12-06T09:40:57.587Z,101429.09
2022-12-06T09:43:51.046Z,101432.06
2022-12-06T09:46:20.686Z,101433.38
2022-12-06T09:48:51.567Z,101430.22
2022-12-06T09:51:53.439Z,101427.06
2022-12-06T09:54:28.763Z,101416.81
2022-12-06T09:57:02.048Z,101422.69
2022-12-06T10:00:03.733Z,101404.63
2022-12-06T10:02:44.592Z,101404.22
2022-12-06T10:05:29.966Z,101402.56
2022-12-06T10:08:10.656Z,101401.63
2022-12-06T10:10:55.462Z,101397.19
2022-12-06T10:13:55.856Z,101398.16
2022-12-06T10:16:44.861Z,101385.00
2022-12-06T10:19:23.517Z,101385.31
2022-12-06T10:22:18.008Z,101378.47
2022-12-06T10:24:52.367Z,101373.44
2022-12-06T10:27:18.887Z,101380.16
2022-12-06T10:30:02.115Z,101374.31
2022-12-06T10:32:50.973Z,101364.75
2022-12-06T10:35:18.312Z,101371.41
2022-12-06T10:38:06.443Z,101361.19
2022-12-06T10:40:41.939Z,101358.31
2022-12-06T10:43:18.518Z,101362.25
2022-12-06T10:46:09.403Z,101350.22
2022-12-06T10:49:04.238Z,101352.34
2022-12-06T10:51:40.753Z,101339.47
2022-12-06T10:54:30.753Z,101339.75
2022-12-06T10:57:01.511Z,101337.81
2022-12-06T10:59:36.347Z,101341.00
2022-12-06T11:02:16.622Z,101327.13
2022-12-06T11:04:44.890Z,101328.25
2022-12-06T11:07:39.157Z,101323.44
2022-12-06T11:10:17.740Z,101316.97
2022-12-06T11:12:44.346Z,101315.75
2022-12-06T11:15:24.554Z,101320.66
2022-12-06T11:17:59.405Z,101315.91
2022-12-06T11:20:43.478Z,101321.78
2022-12-06T11:23:47.536Z,101311.78
2022-12-06T11:26:35.363Z,101309.00
2022-12-06T11:29:07.125Z,101308.75
2022-12-06T11:32:08.945Z,101305.16
2022-12-06T11:34:43.047Z,101305.69
2022-12-06T11:37:18.194Z,101308.97
2022-12-06T11:39:45.510Z,101305.66
2022-12-06T11:42:15.274Z,101301.88
2022-12-06T11:44:49.492Z,101301.78
2022-12-06T11:47:19.835Z,101299.09
2022-12-06T11:49:46.615Z,101296.31
2022-12-06T11:52:17.888Z,101303.50
2022-12-06T11:54:50.291Z,101296.19
2022-12-06T11:57:30.056Z,101292.16
2022-12-06T12:00:15.303Z,101287.66
2022-12-06T12:02:43.463Z,101278.63
2022-12-06T12:05:22.279Z,101287.44
2022-12-06T12:07:54.762Z,101280.34
2022-12-06T12:10:24.535Z,101280.88
2022-12-06T12:13:10.137Z,101276.72
2022-12-06T12:15:37.225Z,101279.56
2022-12-06T12:18:04.602Z,101275.31
2022-12-06T12:20:34.287Z,101270.69
2022-12-06T12:23:04.550Z,101270.56
2022-12-06T12:25:33.753Z,101265.94
2022-12-06T12:28:02.025Z,101271.91
2022-12-06T12:30:36.954Z,101266.31
2022-12-06T12:33:06.470Z,101257.41
2022-12-06T12:36:07.451Z,101262.63
2022-12-06T12:38:43.048Z,101256.06
2022-12-06T12:41:31.704Z,101257.66
2022-12-06T12:44:35.380Z,101252.19
2022-12-06T12:46:56.298Z,101246.59
2022-12-06T12:49:36.631Z,101241.94
2022-12-06T12:52:23.308Z,101239.13
2022-12-06T12:55:02.308Z,101243.53
2022-12-06T12:57:29.263Z,101238.16
2022-12-06T12:59:55.948Z,101236.19
2022-12-06T13:02:28.996Z,101230.94
2022-12-06T13:05:33.920Z,101233.50
2022-12-06T13:08:22.703Z,101219.97
2022-12-06T13:10:58.395Z,101229.63
2022-12-06T13:13:42.180Z,101221.88
2022-12-06T13:16:19.834Z,101218.78
2022-12-06T13:18:49.164Z,101216.53
2022-12-06T13:21:25.699Z,101212.13
2022-12-06T13:24:06.579Z,101218.69
2022-12-06T13:26:43.031Z,101205.91
2022-12-06T13:29:31.486Z,101205.16
2022-12-06T13:32:00.274Z,101200.63
2022-12-06T13:34:37.785Z,101197.00
2022-12-06T13:37:43.036Z,101205.91
2022-12-06T13:40:35.573Z,101203.22
2022-12-06T13:43:04.276Z,101193.22
2022-12-06T13:45:45.418Z,101198.34
2022-12-06T13:48:24.424Z,101195.31
2022-12-06T13:51:07.857Z,101201.19
2022-12-06T13:54:02.596Z,101193.28
2022-12-06T13:56:35.326Z,101193.53
2022-12-06T13:59:04.615Z,101191.22
2022-12-06T14:01:49.037Z,101189.88
2022-12-06T14:09:44.150Z,101191.72
2022-12-06T14:12:23.071Z,101187.09
2022-12-06T14:15:04.998Z,101190.63
2022-12-06T14:20:29.031Z,101191.34
2022-12-06T14:22:56.288Z,101185.91
2022-12-06T14:25:27.136Z,101186.75
2022-12-06T14:28:11.494Z,101191.13
2022-12-06T14:30:39.308Z,101192.84
2022-12-06T14:33:18.629Z,101191.00
2022-12-06T14:35:51.138Z,101186.50
2022-12-06T14:38:17.626Z,101188.22
2022-12-06T14:41:04.038Z,101183.81
2022-12-06T14:43:32.182Z,101185.63
2022-12-06T14:46:01.872Z,101188.44
2022-12-06T14:48:48.899Z,101183.06
2022-12-06T14:51:23.903Z,101180.38
2022-12-06T14:53:50.608Z,101180.38
2022-12-06T14:56:33.686Z,101176.00
2022-12-06T14:59:01.333Z,101176.84
2022-12-06T15:01:29.599Z,101173.19
2022-12-06T15:04:00.926Z,101168.66
2022-12-06T15:06:30.395Z,101172.31
2022-12-06T15:08:56.890Z,101159.03
2022-12-06T15:11:48.014Z,101174.28
2022-12-06T15:14:17.654Z,101167.19
2022-12-06T15:16:46.747Z,101180.59
2022-12-06T15:19:15.019Z,101175.34
2022-12-06T15:21:42.253Z,101180.53
2022-12-06T15:24:20.072Z,101177.06
2022-12-06T15:26:47.509Z,101182.56
2022-12-06T15:29:14.447Z,101178.16
2022-12-06T15:31:45.300Z,101179.03
2022-12-06T15:34:24.267Z,101177.78
2022-12-06T15:36:59.555Z,101175.94
2022-12-06T15:39:35.845Z,101177.16
2022-12-06T15:42:02.700Z,101169.44
2022-12-06T15:44:29.268Z,101176.84
2022-12-06T15:46:55.984Z,101176.31
2022-12-06T15:49:28.475Z,101175.00
2022-12-06T15:51:55.104Z,101179.94
2022-12-06T15:54:23.831Z,101188.41
2022-12-06T15:56:51.623Z,101193.41
2022-12-06T15:59:19.164Z,101197.06
2022-12-06T16:01:48.120Z,101204.25
2022-12-06T16:04:17.485Z,101202.56
2022-12-06T16:06:44.755Z,101198.91
2022-12-06T16:09:13.603Z,101197.19
2022-12-06T16:11:40.858Z,101199.88
2022-12-06T16:14:07.838Z,101194.72
2022-12-06T16:16:39.839Z,101195.88
2022-12-06T16:19:09.549Z,101197.06
2022-12-06T16:21:49.638Z,101194.72
2022-12-06T16:24:16.224Z,101193.31
2022-12-06T16:26:45.066Z,101193.69
2022-12-06T16:29:25.141Z,101193.69
2022-12-06T16:31:53.076Z,101192.06
2022-12-06T16:34:20.142Z,101184.34
2022-12-06T16:37:00.171Z,101195.53
2022-12-06T16:39:28.401Z,101188.00
2022-12-06T16:41:54.935Z,101187.97
2022-12-06T16:44:21.554Z,101189.72
2022-12-06T16:46:48.333Z,101191.69
2022-12-06T16:49:45.159Z,101199.13
2022-12-06T16:52:08.791Z,101195.28
2022-12-06T16:54:35.877Z,101190.91
2022-12-06T16:57:02.541Z,101193.66
2022-12-06T16:59:29.143Z,101195.59
2022-12-06T17:01:55.750Z,101200.28
2022-12-06T17:04:22.364Z,101195.06
2022-12-06T17:06:49.421Z,101200.56
2022-12-06T17:09:16.294Z,101201.63
2022-12-06T17:12:03.513Z,101193.81
2022-12-06T17:14:30.284Z,101196.69
2022-12-06T17:16:57.236Z,101203.00
2022-12-06T17:19:28.588Z,101204.03
2022-12-06T17:21:55.872Z,101204.44
2022-12-06T17:24:25.213Z,101202.00
2022-12-06T17:26:54.100Z,101198.78
2022-12-06T17:29:21.706Z,101204.31
2022-12-06T17:31:48.324Z,101206.31
2022-12-06T17:34:15.786Z,101197.66
2022-12-06T17:36:43.205Z,101200.50
2022-12-06T17:39:11.298Z,101204.25
2022-12-06T17:41:56.321Z,101205.50
2022-12-06T17:44:23.186Z,101206.63
2022-12-06T17:46:50.207Z,101213.25
2022-12-06T17:49:19.076Z,101205.72
2022-12-06T17:51:46.271Z,101211.38
2022-12-06T17:54:13.294Z,101202.88
2022-12-06T17:56:42.441Z,101211.16
2022-12-06T17:59:11.347Z,101194.28
2022-12-06T18:02:06.578Z,101198.03
2022-12-06T18:04:29.299Z,101199.56
2022-12-06T18:06:56.174Z,101204.59
2022-12-06T18:09:22.884Z,101199.66
2022-12-06T18:11:49.991Z,101209.66
2022-12-06T18:14:16.875Z,101199.16
2022-12-06T18:16:45.948Z,101200.41
2022-12-06T18:19:17.984Z,101197.63
2022-12-06T18:21:44.936Z,101204.63
2022-12-06T18:24:21.612Z,101210.50
2022-12-06T18:26:50.104Z,101213.28
2022-12-06T18:29:19.503Z,101207.84
2022-12-06T18:31:46.711Z,101207.00
2022-12-06T18:34:13.861Z,101208.41
2022-12-06T18:36:41.050Z,101209.84
2022-12-06T18:39:14.950Z,101210.44
2022-12-06T18:41:43.645Z,101214.44
2022-12-06T18:44:10.832Z,101219.47
2022-12-06T18:46:39.046Z,101215.66
2022-12-06T18:51:57.041Z,101215.88
2022-12-06T18:54:23.725Z,101219.84
2022-12-06T18:56:59.696Z,101221.28
2022-12-06T18:59:27.994Z,101219.38
2022-12-06T19:01:55.530Z,101211.09
2022-12-06T19:04:22.738Z,101211.94
2022-12-06T19:06:51.738Z,101209.19
2022-12-06T19:09:18.698Z,101214.53
2022-12-06T19:11:46.186Z,101210.03
2022-12-06T19:14:13.553Z,101206.59
2022-12-06T19:16:46.342Z,101214.03
2022-12-06T19:19:24.686Z,101214.59
2022-12-06T19:21:52.499Z,101203.59
2022-12-06T19:24:22.692Z,101205.22
2022-12-06T19:26:53.775Z,101201.88
2022-12-06T19:29:20.753Z,101201.03
2022-12-06T19:31:47.618Z,101205.59
2022-12-06T19:34:16.671Z,101207.81
2022-12-06T19:36:43.747Z,101212.50
2022-12-06T19:39:11.378Z,101204.97
2022-12-06T19:41:58.791Z,101204.19
2022-12-06T19:44:26.708Z,101194.84
2022-12-06T19:46:53.582Z,101203.81
2022-12-06T19:49:22.984Z,101195.72
2022-12-06T19:51:50.298Z,101210.00
2022-12-06T19:54:20.666Z,101202.06
2022-12-06T19:56:48.815Z,101200.56
2022-12-06T19:59:15.776Z,101197.50
2022-12-06T20:01:44.618Z,101202.31
2022-12-06T20:04:16.730Z,101202.72
2022-12-06T20:06:43.413Z,101207.16
2022-12-06T20:09:10.483Z,101208.69
2022-12-06T20:11:57.372Z,101210.22
2022-12-06T20:14:24.215Z,101205.50
2022-12-06T20:16:52.109Z,101204.25
2022-12-06T20:19:21.651Z,101201.50
2022-12-06T20:21:48.746Z,101205.31
2022-12-06T20:24:19.131Z,101205.66
2022-12-06T20:26:49.067Z,101208.69
2022-12-06T20:29:17.945Z,101206.13
2022-12-06T20:31:45.173Z,101204.41
2022-12-06T20:34:15.055Z,101207.94
2022-12-06T20:36:45.096Z,101199.84
2022-12-06T20:39:38.899Z,101202.44
2022-12-06T20:42:07.991Z,101199.75
2022-12-06T20:44:34.927Z,101198.03
2022-12-06T20:47:04.301Z,101198.22
2022-12-06T20:49:31.089Z,101197.53
2022-12-06T20:52:01.887Z,101187.16
2022-12-06T20:54:28.435Z,101195.16
2022-12-06T20:56:54.988Z,101193.41
2022-12-06T20:59:21.677Z,101188.00
2022-12-06T21:01:48.428Z,101188.09
2022-12-06T21:04:15.744Z,101178.63
2022-12-06T21:06:43.099Z,101179.28
2022-12-06T21:09:11.184Z,101185.31
2022-12-06T21:11:37.901Z,101188.31
2022-12-06T21:14:05.890Z,101180.69
2022-12-06T21:16:33.512Z,101184.28
2022-12-06T21:19:03.980Z,101189.59
2022-12-06T21:21:34.312Z,101186.00
2022-12-06T21:24:02.580Z,101191.25
2022-12-06T21:26:29.974Z,101186.00
2022-12-06T21:28:56.794Z,101183.50
2022-12-06T21:31:29.074Z,101182.50
2022-12-06T21:33:56.204Z,101182.56
2022-12-06T21:36:23.172Z,101186.28
2022-12-06T21:38:49.920Z,101186.53
2022-12-06T21:41:17.660Z,101187.63
2022-12-06T21:43:44.621Z,101191.44
2022-12-06T21:46:19.979Z,101192.47
2022-12-06T21:48:52.670Z,101193.34
2022-12-06T21:51:19.777Z,101190.69
2022-12-06T21:53:46.384Z,101195.91
2022-12-06T21:56:17.459Z,101183.53
2022-12-06T21:58:44.903Z,101191.59
2022-12-06T22:01:14.289Z,101186.47
2022-12-06T22:03:41.022Z,101187.31
2022-12-06T22:06:12.374Z,101183.63
2022-12-06T22:08:40.137Z,101182.31
2022-12-06T22:11:13.789Z,101178.44
2022-12-06T22:13:40.640Z,101183.69
2022-12-06T22:16:09.047Z,101179.31
2022-12-06T22:18:41.159Z,101182.16
2022-12-06T22:21:14.645Z,101180.59
2022-12-06T22:23:41.212Z,101185.25
2022-12-06T22:26:09.190Z,101181.13
2022-12-06T22:28:36.299Z,101179.59
2022-12-06T22:31:14.244Z,101184.22
2022-12-06T22:33:43.554Z,101187.94
2022-12-06T22:36:10.721Z,101182.94
2022-12-06T22:38:37.394Z,101194.69
2022-12-06T22:41:06.240Z,101192.31
2022-12-06T22:43:34.205Z,101186.28
2022-12-06T22:46:12.663Z,101183.78
2022-12-06T22:48:39.568Z,101178.56
2022-12-06T22:51:17.811Z,101175.13
2022-12-06T22:53:46.327Z,101183.19
2022-12-06T22:56:14.664Z,101187.66
2022-12-06T22:58:41.506Z,101179.75
2022-12-06T23:01:16.440Z,101182.59
2022-12-06T23:03:50.791Z,101190.56
2022-12-06T23:06:21.690Z,101186.16
2022-12-06T23:08:48.673Z,101177.34
2022-12-06T23:11:18.113Z,101182.91
2022-12-06T23:13:45.236Z,101185.47
2022-12-06T23:16:14.267Z,101179.16
2022-12-06T23:18:41.747Z,101179.94
2022-12-06T23:21:08.217Z,101180.69
2022-12-06T23:23:35.688Z,101180.69
2022-12-06T23:26:06.429Z,101172.53
2022-12-06T23:28:33.701Z,101170.81
2022-12-06T23:31:09.822Z,101173.38
2022-12-06T23:33:36.369Z,101174.25
2022-12-06T23:36:23.316Z,101167.97
2022-12-06T23:38:50.210Z,101165.31
2022-12-06T23:41:22.662Z,101158.19
2022-12-06T23:43:49.911Z,101164.47
2022-12-06T23:46:22.104Z,101166.16
2022-12-06T23:48:51.274Z,101157.59
2022-12-06T23:51:19.765Z,101157.75
2022-12-06T23:53:50.357Z,101158.97
2022-12-06T23:56:18.952Z,101160.75
2022-12-06T23:58:46.596Z,101156.53
